sensor_id;sensor_type;location;lat;lon;timestamp;P1;durP1;ratioP1;P2;durP2;ratioP2
46931;SDS011;32670;51.464;11.964;2023-06-14T00:00:39;2.03;;;1.50;;
46931;SDS011;32670;51.464;11.964;2023-06-14T00:03:06;4.53;;;1.60;;
46931;SDS011;32670;51.464;11.964;2023-06-14T00:05:33;3.37;;;1.47;;
46931;SDS011;32670;51.464;11.964;2023-06-14T00:08:03;2.20;;;1.20;;
46931;SDS011;32670;51.464;11.964;2023-06-14T00:10:32;3.43;;;1.40;;
46931;SDS011;32670;51.464;11.964;2023-06-14T00:13:00;2.67;;;1.50;;
46931;SDS011;32670;51.464;11.964;2023-06-14T00:15:30;1.77;;;1.40;;
46931;SDS011;32670;51.464;11.964;2023-06-14T00:17:56;3.00;;;1.47;;
46931;SDS011;32670;51.464;11.964;2023-06-14T00:20:25;3.37;;;1.63;;
46931;SDS011;32670;51.464;11.964;2023-06-14T00:22:51;2.37;;;1.50;;
46931;SDS011;32670;51.464;11.964;2023-06-14T00:25:17;2.93;;;1.70;;
46931;SDS011;32670;51.464;11.964;2023-06-14T00:27:42;1.77;;;1.50;;
46931;SDS011;32670;51.464;11.964;2023-06-14T00:30:08;3.13;;;1.60;;
46931;SDS011;32670;51.464;11.964;2023-06-14T00:32:34;1.70;;;1.50;;
46931;SDS011;32670;51.464;11.964;2023-06-14T00:34:59;2.47;;;1.40;;
46931;SDS011;32670;51.464;11.964;2023-06-14T00:37:25;3.20;;;1.50;;
46931;SDS011;32670;51.464;11.964;2023-06-14T00:39:50;1.60;;;1.40;;
46931;SDS011;32670;51.464;11.964;2023-06-14T00:42:25;1.77;;;1.40;;
46931;SDS011;32670;51.464;11.964;2023-06-14T00:44:52;1.30;;;1.20;;
46931;SDS011;32670;51.464;11.964;2023-06-14T00:47:17;2.23;;;1.53;;
46931;SDS011;32670;51.464;11.964;2023-06-14T00:49:47;3.53;;;1.63;;
46931;SDS011;32670;51.464;11.964;2023-06-14T00:52:14;4.00;;;1.70;;
46931;SDS011;32670;51.464;11.964;2023-06-14T00:54:40;4.17;;;1.40;;
46931;SDS011;32670;51.464;11.964;2023-06-14T00:57:07;8.20;;;1.63;;
46931;SDS011;32670;51.464;11.964;2023-06-14T00:59:33;3.17;;;1.43;;
46931;SDS011;32670;51.464;11.964;2023-06-14T01:02:00;2.30;;;1.60;;
46931;SDS011;32670;51.464;11.964;2023-06-14T01:04:26;2.70;;;1.30;;
46931;SDS011;32670;51.464;11.964;2023-06-14T01:09:40;1.70;;;1.60;;
46931;SDS011;32670;51.464;11.964;2023-06-14T01:12:21;1.50;;;1.40;;
46931;SDS011;32670;51.464;11.964;2023-06-14T01:14:56;2.70;;;1.70;;
46931;SDS011;32670;51.464;11.964;2023-06-14T01:17:22;1.87;;;1.53;;
46931;SDS011;32670;51.464;11.964;2023-06-14T01:19:48;1.93;;;1.77;;
46931;SDS011;32670;51.464;11.964;2023-06-14T01:22:14;1.83;;;1.40;;
46931;SDS011;32670;51.464;11.964;2023-06-14T01:24:39;5.60;;;1.83;;
46931;SDS011;32670;51.464;11.964;2023-06-14T01:27:09;2.40;;;1.50;;
46931;SDS011;32670;51.464;11.964;2023-06-14T01:29:36;2.83;;;1.50;;
46931;SDS011;32670;51.464;11.964;2023-06-14T01:32:02;2.90;;;1.57;;
46931;SDS011;32670;51.464;11.964;2023-06-14T01:34:28;1.57;;;1.47;;
46931;SDS011;32670;51.464;11.964;2023-06-14T01:36:53;1.40;;;1.30;;
46931;SDS011;32670;51.464;11.964;2023-06-14T01:39:20;2.80;;;1.60;;
46931;SDS011;32670;51.464;11.964;2023-06-14T01:41:47;2.00;;;1.80;;
46931;SDS011;32670;51.464;11.964;2023-06-14T01:44:14;1.77;;;1.67;;
46931;SDS011;32670;51.464;11.964;2023-06-14T01:46:42;1.70;;;1.33;;
46931;SDS011;32670;51.464;11.964;2023-06-14T01:49:08;4.53;;;1.50;;
46931;SDS011;32670;51.464;11.964;2023-06-14T01:51:34;3.27;;;1.50;;
46931;SDS011;32670;51.464;11.964;2023-06-14T01:54:00;3.23;;;1.70;;
46931;SDS011;32670;51.464;11.964;2023-06-14T01:56:26;3.50;;;1.40;;
46931;SDS011;32670;51.464;11.964;2023-06-14T01:58:51;2.07;;;1.40;;
46931;SDS011;32670;51.464;11.964;2023-06-14T02:01:18;1.83;;;1.57;;
46931;SDS011;32670;51.464;11.964;2023-06-14T02:03:46;1.77;;;1.40;;
46931;SDS011;32670;51.464;11.964;2023-06-14T02:06:12;1.70;;;1.50;;
46931;SDS011;32670;51.464;11.964;2023-06-14T02:08:37;2.17;;;1.60;;
46931;SDS011;32670;51.464;11.964;2023-06-14T02:11:02;1.97;;;1.70;;
46931;SDS011;32670;51.464;11.964;2023-06-14T02:13:28;1.77;;;1.67;;
46931;SDS011;32670;51.464;11.964;2023-06-14T02:15:53;2.17;;;1.60;;
46931;SDS011;32670;51.464;11.964;2023-06-14T02:18:19;1.67;;;1.40;;
46931;SDS011;32670;51.464;11.964;2023-06-14T02:20:46;1.63;;;1.53;;
46931;SDS011;32670;51.464;11.964;2023-06-14T02:23:12;2.10;;;1.57;;
46931;SDS011;32670;51.464;11.964;2023-06-14T02:25:37;2.23;;;1.50;;
46931;SDS011;32670;51.464;11.964;2023-06-14T02:28:04;2.80;;;1.60;;
46931;SDS011;32670;51.464;11.964;2023-06-14T02:30:30;1.93;;;1.57;;
46931;SDS011;32670;51.464;11.964;2023-06-14T02:32:55;1.80;;;1.20;;
46931;SDS011;32670;51.464;11.964;2023-06-14T02:35:21;2.73;;;1.80;;
46931;SDS011;32670;51.464;11.964;2023-06-14T02:37:49;2.57;;;1.30;;
46931;SDS011;32670;51.464;11.964;2023-06-14T02:40:16;1.70;;;1.60;;
46931;SDS011;32670;51.464;11.964;2023-06-14T02:42:41;1.73;;;1.30;;
46931;SDS011;32670;51.464;11.964;2023-06-14T02:45:07;3.00;;;1.50;;
46931;SDS011;32670;51.464;11.964;2023-06-14T02:47:33;2.17;;;1.50;;
46931;SDS011;32670;51.464;11.964;2023-06-14T02:49:58;1.50;;;1.40;;
46931;SDS011;32670;51.464;11.964;2023-06-14T02:52:24;2.70;;;1.67;;
46931;SDS011;32670;51.464;11.964;2023-06-14T02:54:50;1.97;;;1.53;;
46931;SDS011;32670;51.464;11.964;2023-06-14T02:57:15;1.73;;;1.60;;
46931;SDS011;32670;51.464;11.964;2023-06-14T02:59:41;3.83;;;1.70;;
46931;SDS011;32670;51.464;11.964;2023-06-14T03:02:06;2.60;;;1.60;;
46931;SDS011;32670;51.464;11.964;2023-06-14T03:04:32;2.57;;;1.57;;
46931;SDS011;32670;51.464;11.964;2023-06-14T03:07:02;1.73;;;1.63;;
46931;SDS011;32670;51.464;11.964;2023-06-14T03:09:33;3.03;;;1.80;;
46931;SDS011;32670;51.464;11.964;2023-06-14T03:12:00;3.73;;;1.90;;
46931;SDS011;32670;51.464;11.964;2023-06-14T03:14:25;2.53;;;1.80;;
46931;SDS011;32670;51.464;11.964;2023-06-14T03:16:51;1.90;;;1.60;;
46931;SDS011;32670;51.464;11.964;2023-06-14T03:19:21;2.00;;;1.67;;
46931;SDS011;32670;51.464;11.964;2023-06-14T03:21:47;2.23;;;1.60;;
46931;SDS011;32670;51.464;11.964;2023-06-14T03:24:12;3.77;;;1.90;;
46931;SDS011;32670;51.464;11.964;2023-06-14T03:26:38;1.73;;;1.63;;
46931;SDS011;32670;51.464;11.964;2023-06-14T03:29:04;4.20;;;1.87;;
46931;SDS011;32670;51.464;11.964;2023-06-14T03:31:29;1.90;;;1.60;;
46931;SDS011;32670;51.464;11.964;2023-06-14T03:33:58;2.43;;;1.60;;
46931;SDS011;32670;51.464;11.964;2023-06-14T03:36:24;2.07;;;1.60;;
46931;SDS011;32670;51.464;11.964;2023-06-14T03:38:50;2.60;;;1.73;;
46931;SDS011;32670;51.464;11.964;2023-06-14T03:41:16;2.33;;;1.50;;
46931;SDS011;32670;51.464;11.964;2023-06-14T03:43:41;2.73;;;1.50;;
46931;SDS011;32670;51.464;11.964;2023-06-14T03:46:07;3.90;;;1.50;;
46931;SDS011;32670;51.464;11.964;2023-06-14T03:48:32;2.53;;;1.80;;
46931;SDS011;32670;51.464;11.964;2023-06-14T03:50:58;4.00;;;1.70;;
46931;SDS011;32670;51.464;11.964;2023-06-14T03:53:23;2.93;;;1.70;;
46931;SDS011;32670;51.464;11.964;2023-06-14T03:55:49;3.93;;;1.70;;
46931;SDS011;32670;51.464;11.964;2023-06-14T03:58:17;3.93;;;1.63;;
46931;SDS011;32670;51.464;11.964;2023-06-14T04:00:42;1.67;;;1.53;;
46931;SDS011;32670;51.464;11.964;2023-06-14T04:03:08;2.77;;;1.60;;
46931;SDS011;32670;51.464;11.964;2023-06-14T04:05:34;2.57;;;1.80;;
46931;SDS011;32670;51.464;11.964;2023-06-14T04:07:59;3.27;;;1.47;;
46931;SDS011;32670;51.464;11.964;2023-06-14T04:10:25;2.30;;;2.10;;
46931;SDS011;32670;51.464;11.964;2023-06-14T04:12:51;1.97;;;1.70;;
46931;SDS011;32670;51.464;11.964;2023-06-14T04:15:17;4.40;;;1.70;;
46931;SDS011;32670;51.464;11.964;2023-06-14T04:17:42;1.73;;;1.63;;
46931;SDS011;32670;51.464;11.964;2023-06-14T04:20:08;5.23;;;1.83;;
46931;SDS011;32670;51.464;11.964;2023-06-14T04:22:34;2.03;;;1.50;;
46931;SDS011;32670;51.464;11.964;2023-06-14T04:25:01;3.67;;;1.80;;
46931;SDS011;32670;51.464;11.964;2023-06-14T04:27:27;2.17;;;1.80;;
46931;SDS011;32670;51.464;11.964;2023-06-14T04:29:53;2.30;;;1.70;;
46931;SDS011;32670;51.464;11.964;2023-06-14T04:32:25;2.03;;;1.70;;
46931;SDS011;32670;51.464;11.964;2023-06-14T04:34:53;6.37;;;1.80;;
46931;SDS011;32670;51.464;11.964;2023-06-14T04:37:19;3.03;;;1.70;;
46931;SDS011;32670;51.464;11.964;2023-06-14T04:39:46;3.20;;;1.80;;
46931;SDS011;32670;51.464;11.964;2023-06-14T04:42:12;1.80;;;1.70;;
46931;SDS011;32670;51.464;11.964;2023-06-14T04:44:39;2.93;;;1.87;;
46931;SDS011;32670;51.464;11.964;2023-06-14T04:47:06;2.43;;;1.57;;
46931;SDS011;32670;51.464;11.964;2023-06-14T04:49:31;2.13;;;1.70;;
46931;SDS011;32670;51.464;11.964;2023-06-14T04:51:58;2.13;;;1.50;;
46931;SDS011;32670;51.464;11.964;2023-06-14T04:54:26;2.00;;;1.50;;
46931;SDS011;32670;51.464;11.964;2023-06-14T04:56:52;2.93;;;1.70;;
46931;SDS011;32670;51.464;11.964;2023-06-14T04:59:20;2.30;;;1.33;;
46931;SDS011;32670;51.464;11.964;2023-06-14T05:01:47;2.40;;;1.60;;
46931;SDS011;32670;51.464;11.964;2023-06-14T05:04:14;1.70;;;1.60;;
46931;SDS011;32670;51.464;11.964;2023-06-14T05:06:41;3.27;;;1.40;;
46931;SDS011;32670;51.464;11.964;2023-06-14T05:09:07;1.73;;;1.40;;
46931;SDS011;32670;51.464;11.964;2023-06-14T05:11:32;1.70;;;1.60;;
46931;SDS011;32670;51.464;11.964;2023-06-14T05:13:58;2.07;;;1.50;;
46931;SDS011;32670;51.464;11.964;2023-06-14T05:16:23;2.33;;;1.47;;
46931;SDS011;32670;51.464;11.964;2023-06-14T05:18:50;1.83;;;1.60;;
46931;SDS011;32670;51.464;11.964;2023-06-14T05:21:16;8.93;;;1.70;;
46931;SDS011;32670;51.464;11.964;2023-06-14T05:23:43;3.63;;;1.50;;
46931;SDS011;32670;51.464;11.964;2023-06-14T05:26:09;2.40;;;2.20;;
46931;SDS011;32670;51.464;11.964;2023-06-14T05:28:35;5.80;;;2.37;;
46931;SDS011;32670;51.464;11.964;2023-06-14T05:31:01;3.03;;;2.13;;
46931;SDS011;32670;51.464;11.964;2023-06-14T05:33:27;6.13;;;2.17;;
46931;SDS011;32670;51.464;11.964;2023-06-14T05:35:52;3.57;;;2.70;;
46931;SDS011;32670;51.464;11.964;2023-06-14T05:38:18;3.63;;;2.40;;
46931;SDS011;32670;51.464;11.964;2023-06-14T05:40:43;4.80;;;2.40;;
46931;SDS011;32670;51.464;11.964;2023-06-14T05:43:08;3.47;;;2.20;;
46931;SDS011;32670;51.464;11.964;2023-06-14T05:45:35;3.73;;;2.20;;
46931;SDS011;32670;51.464;11.964;2023-06-14T05:48:00;3.73;;;2.40;;
46931;SDS011;32670;51.464;11.964;2023-06-14T05:50:26;3.23;;;2.50;;
46931;SDS011;32670;51.464;11.964;2023-06-14T05:52:52;4.40;;;2.50;;
46931;SDS011;32670;51.464;11.964;2023-06-14T05:55:18;3.60;;;2.60;;
46931;SDS011;32670;51.464;11.964;2023-06-14T05:57:44;4.07;;;3.07;;
46931;SDS011;32670;51.464;11.964;2023-06-14T06:00:09;3.63;;;2.77;;
46931;SDS011;32670;51.464;11.964;2023-06-14T06:02:41;4.37;;;2.70;;
46931;SDS011;32670;51.464;11.964;2023-06-14T06:05:08;3.07;;;2.77;;
46931;SDS011;32670;51.464;11.964;2023-06-14T06:07:34;3.87;;;2.80;;
46931;SDS011;32670;51.464;11.964;2023-06-14T06:09:59;3.20;;;2.90;;
46931;SDS011;32670;51.464;11.964;2023-06-14T06:12:25;3.77;;;2.50;;
46931;SDS011;32670;51.464;11.964;2023-06-14T06:14:50;3.70;;;2.90;;
46931;SDS011;32670;51.464;11.964;2023-06-14T06:17:16;3.03;;;2.83;;
46931;SDS011;32670;51.464;11.964;2023-06-14T06:19:41;11.53;;;3.37;;
46931;SDS011;32670;51.464;11.964;2023-06-14T06:22:07;12.67;;;3.60;;
46931;SDS011;32670;51.464;11.964;2023-06-14T06:24:32;14.23;;;3.40;;
46931;SDS011;32670;51.464;11.964;2023-06-14T06:26:58;7.20;;;3.00;;
46931;SDS011;32670;51.464;11.964;2023-06-14T06:29:23;5.73;;;3.40;;
46931;SDS011;32670;51.464;11.964;2023-06-14T06:31:49;9.63;;;3.20;;
46931;SDS011;32670;51.464;11.964;2023-06-14T06:34:14;6.27;;;3.20;;
46931;SDS011;32670;51.464;11.964;2023-06-14T06:36:40;5.67;;;3.27;;
46931;SDS011;32670;51.464;11.964;2023-06-14T06:39:07;4.17;;;3.03;;
46931;SDS011;32670;51.464;11.964;2023-06-14T06:41:35;7.00;;;3.10;;
46931;SDS011;32670;51.464;11.964;2023-06-14T06:44:04;3.37;;;3.07;;
46931;SDS011;32670;51.464;11.964;2023-06-14T06:46:30;4.07;;;2.50;;
46931;SDS011;32670;51.464;11.964;2023-06-14T06:48:56;3.10;;;2.90;;
46931;SDS011;32670;51.464;11.964;2023-06-14T06:51:22;4.87;;;2.57;;
46931;SDS011;32670;51.464;11.964;2023-06-14T06:53:51;4.00;;;3.03;;
46931;SDS011;32670;51.464;11.964;2023-06-14T06:56:18;7.13;;;2.90;;
46931;SDS011;32670;51.464;11.964;2023-06-14T06:58:44;6.20;;;3.13;;
46931;SDS011;32670;51.464;11.964;2023-06-14T07:01:10;6.33;;;3.03;;
46931;SDS011;32670;51.464;11.964;2023-06-14T07:03:36;4.60;;;3.10;;
46931;SDS011;32670;51.464;11.964;2023-06-14T07:06:02;4.40;;;2.93;;
46931;SDS011;32670;51.464;11.964;2023-06-14T07:08:27;3.50;;;2.90;;
46931;SDS011;32670;51.464;11.964;2023-06-14T07:10:53;5.73;;;3.30;;
46931;SDS011;32670;51.464;11.964;2023-06-14T07:13:18;4.43;;;2.77;;
46931;SDS011;32670;51.464;11.964;2023-06-14T07:15:44;6.13;;;2.87;;
46931;SDS011;32670;51.464;11.964;2023-06-14T07:18:09;5.00;;;2.93;;
46931;SDS011;32670;51.464;11.964;2023-06-14T07:20:35;3.97;;;2.77;;
46931;SDS011;32670;51.464;11.964;2023-06-14T07:23:03;3.63;;;3.00;;
46931;SDS011;32670;51.464;11.964;2023-06-14T07:25:28;4.00;;;2.83;;
46931;SDS011;32670;51.464;11.964;2023-06-14T07:27:54;3.37;;;3.03;;
46931;SDS011;32670;51.464;11.964;2023-06-14T07:30:19;3.60;;;2.70;;
46931;SDS011;32670;51.464;11.964;2023-06-14T07:32:45;3.23;;;2.93;;
46931;SDS011;32670;51.464;11.964;2023-06-14T07:35:10;3.77;;;2.90;;
46931;SDS011;32670;51.464;11.964;2023-06-14T07:37:36;4.87;;;2.50;;
46931;SDS011;32670;51.464;11.964;2023-06-14T07:40:01;6.00;;;3.00;;
46931;SDS011;32670;51.464;11.964;2023-06-14T07:42:32;5.53;;;2.63;;
46931;SDS011;32670;51.464;11.964;2023-06-14T07:45:01;5.47;;;2.60;;
46931;SDS011;32670;51.464;11.964;2023-06-14T07:47:27;3.13;;;2.73;;
46931;SDS011;32670;51.464;11.964;2023-06-14T07:49:52;3.23;;;2.70;;
46931;SDS011;32670;51.464;11.964;2023-06-14T07:52:18;4.97;;;2.60;;
46931;SDS011;32670;51.464;11.964;2023-06-14T07:54:43;4.00;;;2.77;;
46931;SDS011;32670;51.464;11.964;2023-06-14T07:57:08;4.20;;;2.63;;
46931;SDS011;32670;51.464;11.964;2023-06-14T07:59:34;3.73;;;2.93;;
46931;SDS011;32670;51.464;11.964;2023-06-14T08:02:00;3.00;;;2.70;;
46931;SDS011;32670;51.464;11.964;2023-06-14T08:04:25;3.97;;;2.50;;
46931;SDS011;32670;51.464;11.964;2023-06-14T08:06:51;2.90;;;2.70;;
46931;SDS011;32670;51.464;11.964;2023-06-14T08:09:16;3.00;;;2.70;;
46931;SDS011;32670;51.464;11.964;2023-06-14T08:11:42;2.60;;;2.40;;
46931;SDS011;32670;51.464;11.964;2023-06-14T08:14:08;2.80;;;2.60;;
46931;SDS011;32670;51.464;11.964;2023-06-14T08:16:33;2.70;;;2.50;;
46931;SDS011;32670;51.464;11.964;2023-06-14T08:18:59;5.47;;;2.80;;
46931;SDS011;32670;51.464;11.964;2023-06-14T08:21:24;2.90;;;2.60;;
46931;SDS011;32670;51.464;11.964;2023-06-14T08:23:54;2.90;;;2.57;;
46931;SDS011;32670;51.464;11.964;2023-06-14T08:26:22;2.63;;;2.43;;
46931;SDS011;32670;51.464;11.964;2023-06-14T08:28:48;2.70;;;2.27;;
46931;SDS011;32670;51.464;11.964;2023-06-14T08:31:13;2.60;;;2.40;;
46931;SDS011;32670;51.464;11.964;2023-06-14T08:33:39;2.50;;;2.30;;
46931;SDS011;32670;51.464;11.964;2023-06-14T08:36:07;3.47;;;2.60;;
46931;SDS011;32670;51.464;11.964;2023-06-14T08:38:33;3.10;;;2.80;;
46931;SDS011;32670;51.464;11.964;2023-06-14T08:40:59;2.97;;;2.40;;
46931;SDS011;32670;51.464;11.964;2023-06-14T08:43:26;2.70;;;2.50;;
46931;SDS011;32670;51.464;11.964;2023-06-14T08:45:53;2.50;;;2.30;;
46931;SDS011;32670;51.464;11.964;2023-06-14T08:48:23;2.57;;;2.37;;
46931;SDS011;32670;51.464;11.964;2023-06-14T08:50:51;2.50;;;2.30;;
46931;SDS011;32670;51.464;11.964;2023-06-14T08:53:26;2.77;;;2.57;;
46931;SDS011;32670;51.464;11.964;2023-06-14T08:55:56;2.93;;;2.50;;
46931;SDS011;32670;51.464;11.964;2023-06-14T08:58:30;3.00;;;2.30;;
46931;SDS011;32670;51.464;11.964;2023-06-14T09:00:56;2.53;;;2.33;;
46931;SDS011;32670;51.464;11.964;2023-06-14T09:03:23;3.23;;;2.40;;
46931;SDS011;32670;51.464;11.964;2023-06-14T09:05:54;2.70;;;2.50;;
46931;SDS011;32670;51.464;11.964;2023-06-14T09:08:21;3.53;;;2.23;;
46931;SDS011;32670;51.464;11.964;2023-06-14T09:10:47;2.43;;;2.23;;
46931;SDS011;32670;51.464;11.964;2023-06-14T09:13:12;2.57;;;2.30;;
46931;SDS011;32670;51.464;11.964;2023-06-14T09:15:38;2.40;;;2.20;;
46931;SDS011;32670;51.464;11.964;2023-06-14T09:18:03;2.90;;;2.37;;
46931;SDS011;32670;51.464;11.964;2023-06-14T09:20:30;2.67;;;2.40;;
46931;SDS011;32670;51.464;11.964;2023-06-14T09:22:57;2.37;;;2.20;;
46931;SDS011;32670;51.464;11.964;2023-06-14T09:25:23;2.90;;;2.70;;
46931;SDS011;32670;51.464;11.964;2023-06-14T09:27:51;2.50;;;2.30;;
46931;SDS011;32670;51.464;11.964;2023-06-14T09:30:17;2.50;;;2.30;;
46931;SDS011;32670;51.464;11.964;2023-06-14T09:32:45;2.60;;;2.40;;
46931;SDS011;32670;51.464;11.964;2023-06-14T09:35:11;2.70;;;2.50;;
46931;SDS011;32670;51.464;11.964;2023-06-14T09:37:37;2.83;;;2.63;;
46931;SDS011;32670;51.464;11.964;2023-06-14T09:40:03;2.07;;;1.97;;
46931;SDS011;32670;51.464;11.964;2023-06-14T09:42:29;2.53;;;2.33;;
46931;SDS011;32670;51.464;11.964;2023-06-14T09:44:56;2.37;;;2.17;;
46931;SDS011;32670;51.464;11.964;2023-06-14T09:47:22;2.33;;;2.20;;
46931;SDS011;32670;51.464;11.964;2023-06-14T09:49:48;2.50;;;2.30;;
46931;SDS011;32670;51.464;11.964;2023-06-14T09:52:16;3.30;;;2.43;;
46931;SDS011;32670;51.464;11.964;2023-06-14T09:54:43;2.37;;;2.20;;
46931;SDS011;32670;51.464;11.964;2023-06-14T09:57:11;2.60;;;2.37;;
46931;SDS011;32670;51.464;11.964;2023-06-14T09:59:45;2.70;;;2.50;;
46931;SDS011;32670;51.464;11.964;2023-06-14T10:02:25;3.30;;;3.00;;
46931;SDS011;32670;51.464;11.964;2023-06-14T10:05:00;3.10;;;2.90;;
46931;SDS011;32670;51.464;11.964;2023-06-14T10:07:44;3.43;;;3.13;;
46931;SDS011;32670;51.464;11.964;2023-06-14T10:10:15;3.27;;;2.83;;
46931;SDS011;32670;51.464;11.964;2023-06-14T10:12:40;2.83;;;2.63;;
46931;SDS011;32670;51.464;11.964;2023-06-14T10:15:07;2.80;;;2.53;;
46931;SDS011;32670;51.464;11.964;2023-06-14T10:17:49;3.20;;;2.90;;
46931;SDS011;32670;51.464;11.964;2023-06-14T10:21:08;3.57;;;2.80;;
46931;SDS011;32670;51.464;11.964;2023-06-14T10:23:22;3.00;;;2.70;;
46931;SDS011;32670;51.464;11.964;2023-06-14T10:25:50;2.83;;;2.63;;
46931;SDS011;32670;51.464;11.964;2023-06-14T10:28:20;3.03;;;2.60;;
46931;SDS011;32670;51.464;11.964;2023-06-14T10:31:02;2.90;;;2.70;;
46931;SDS011;32670;51.464;11.964;2023-06-14T10:33:56;2.93;;;2.63;;
46931;SDS011;32670;51.464;11.964;2023-06-14T10:36:30;2.80;;;2.60;;
46931;SDS011;32670;51.464;11.964;2023-06-14T10:39:06;3.00;;;2.70;;
46931;SDS011;32670;51.464;11.964;2023-06-14T10:41:39;3.33;;;3.03;;
46931;SDS011;32670;51.464;11.964;2023-06-14T10:46:46;2.70;;;2.50;;
46931;SDS011;32670;51.464;11.964;2023-06-14T10:49:15;2.80;;;2.60;;
46931;SDS011;32670;51.464;11.964;2023-06-14T10:51:46;2.90;;;2.70;;
46931;SDS011;32670;51.464;11.964;2023-06-14T10:54:16;2.73;;;2.53;;
46931;SDS011;32670;51.464;11.964;2023-06-14T10:56:45;3.00;;;2.80;;
46931;SDS011;32670;51.464;11.964;2023-06-14T10:59:16;2.80;;;2.60;;
46931;SDS011;32670;51.464;11.964;2023-06-14T11:01:51;2.83;;;2.63;;
46931;SDS011;32670;51.464;11.964;2023-06-14T11:04:30;2.60;;;2.40;;
46931;SDS011;32670;51.464;11.964;2023-06-14T11:07:20;3.00;;;2.70;;
46931;SDS011;32670;51.464;11.964;2023-06-14T11:12:38;2.80;;;2.60;;
46931;SDS011;32670;51.464;11.964;2023-06-14T11:15:07;3.03;;;2.80;;
46931;SDS011;32670;51.464;11.964;2023-06-14T11:17:33;4.27;;;2.77;;
46931;SDS011;32670;51.464;11.964;2023-06-14T11:20:11;2.90;;;2.60;;
46931;SDS011;32670;51.464;11.964;2023-06-14T11:22:44;3.10;;;2.70;;
46931;SDS011;32670;51.464;11.964;2023-06-14T11:25:13;2.90;;;2.70;;
46931;SDS011;32670;51.464;11.964;2023-06-14T11:27:41;2.77;;;2.53;;
46931;SDS011;32670;51.464;11.964;2023-06-14T11:30:07;2.80;;;2.60;;
46931;SDS011;32670;51.464;11.964;2023-06-14T11:32:34;2.93;;;2.73;;
46931;SDS011;32670;51.464;11.964;2023-06-14T11:34:59;2.80;;;2.60;;
46931;SDS011;32670;51.464;11.964;2023-06-14T11:37:25;2.97;;;2.77;;
46931;SDS011;32670;51.464;11.964;2023-06-14T11:39:55;2.83;;;2.60;;
46931;SDS011;32670;51.464;11.964;2023-06-14T11:42:21;2.77;;;2.57;;
46931;SDS011;32670;51.464;11.964;2023-06-14T11:44:46;3.00;;;2.80;;
46931;SDS011;32670;51.464;11.964;2023-06-14T11:47:12;3.10;;;2.80;;
46931;SDS011;32670;51.464;11.964;2023-06-14T11:49:38;3.60;;;2.83;;
46931;SDS011;32670;51.464;11.964;2023-06-14T11:52:03;3.20;;;2.90;;
46931;SDS011;32670;51.464;11.964;2023-06-14T11:54:30;3.10;;;2.80;;
46931;SDS011;32670;51.464;11.964;2023-06-14T11:56:56;2.90;;;2.70;;
46931;SDS011;32670;51.464;11.964;2023-06-14T11:59:22;3.03;;;2.80;;
46931;SDS011;32670;51.464;11.964;2023-06-14T12:01:49;2.60;;;2.40;;
46931;SDS011;32670;51.464;11.964;2023-06-14T12:04:22;3.20;;;2.90;;
46931;SDS011;32670;51.464;11.964;2023-06-14T12:06:51;3.20;;;2.90;;
46931;SDS011;32670;51.464;11.964;2023-06-14T12:09:18;3.00;;;2.80;;
46931;SDS011;32670;51.464;11.964;2023-06-14T12:11:44;3.00;;;2.80;;
46931;SDS011;32670;51.464;11.964;2023-06-14T12:14:10;2.87;;;2.67;;
46931;SDS011;32670;51.464;11.964;2023-06-14T12:16:37;3.43;;;3.13;;
46931;SDS011;32670;51.464;11.964;2023-06-14T12:19:14;3.57;;;3.27;;
46931;SDS011;32670;51.464;11.964;2023-06-14T12:21:40;3.30;;;3.10;;
46931;SDS011;32670;51.464;11.964;2023-06-14T12:24:07;3.20;;;3.00;;
46931;SDS011;32670;51.464;11.964;2023-06-14T12:26:33;4.17;;;3.40;;
46931;SDS011;32670;51.464;11.964;2023-06-14T12:29:04;3.80;;;3.50;;
46931;SDS011;32670;51.464;11.964;2023-06-14T12:31:30;3.60;;;3.30;;
46931;SDS011;32670;51.464;11.964;2023-06-14T12:33:56;3.63;;;3.33;;
46931;SDS011;32670;51.464;11.964;2023-06-14T12:36:21;4.13;;;3.73;;
46931;SDS011;32670;51.464;11.964;2023-06-14T12:38:47;4.40;;;4.00;;
46931;SDS011;32670;51.464;11.964;2023-06-14T12:41:12;4.30;;;4.00;;
46931;SDS011;32670;51.464;11.964;2023-06-14T12:43:39;4.67;;;4.27;;
46931;SDS011;32670;51.464;11.964;2023-06-14T12:46:04;4.60;;;4.20;;
46931;SDS011;32670;51.464;11.964;2023-06-14T12:48:31;4.33;;;4.03;;
46931;SDS011;32670;51.464;11.964;2023-06-14T12:50:57;4.63;;;4.23;;
46931;SDS011;32670;51.464;11.964;2023-06-14T12:53:23;4.33;;;3.93;;
46931;SDS011;32670;51.464;11.964;2023-06-14T12:55:48;4.87;;;4.37;;
46931;SDS011;32670;51.464;11.964;2023-06-14T12:58:14;4.07;;;3.77;;
46931;SDS011;32670;51.464;11.964;2023-06-14T13:00:41;4.23;;;3.93;;
46931;SDS011;32670;51.464;11.964;2023-06-14T13:03:07;4.40;;;4.00;;
46931;SDS011;32670;51.464;11.964;2023-06-14T13:05:33;4.20;;;3.90;;
46931;SDS011;32670;51.464;11.964;2023-06-14T13:07:59;5.27;;;4.20;;
46931;SDS011;32670;51.464;11.964;2023-06-14T13:10:25;4.20;;;3.80;;
46931;SDS011;32670;51.464;11.964;2023-06-14T13:12:51;4.10;;;3.80;;
46931;SDS011;32670;51.464;11.964;2023-06-14T13:15:16;4.30;;;3.90;;
46931;SDS011;32670;51.464;11.964;2023-06-14T13:17:42;3.97;;;3.67;;
46931;SDS011;32670;51.464;11.964;2023-06-14T13:20:13;4.07;;;3.77;;
46931;SDS011;32670;51.464;11.964;2023-06-14T13:22:38;4.33;;;3.93;;
46931;SDS011;32670;51.464;11.964;2023-06-14T13:25:04;3.90;;;3.60;;
46931;SDS011;32670;51.464;11.964;2023-06-14T13:27:30;4.20;;;3.87;;
46931;SDS011;32670;51.464;11.964;2023-06-14T13:29:55;4.13;;;3.70;;
46931;SDS011;32670;51.464;11.964;2023-06-14T13:32:21;4.10;;;3.80;;
46931;SDS011;32670;51.464;11.964;2023-06-14T13:34:47;4.40;;;4.00;;
46931;SDS011;32670;51.464;11.964;2023-06-14T13:37:13;4.20;;;3.90;;
46931;SDS011;32670;51.464;11.964;2023-06-14T13:39:39;3.90;;;3.60;;
46931;SDS011;32670;51.464;11.964;2023-06-14T13:42:04;4.20;;;3.90;;
46931;SDS011;32670;51.464;11.964;2023-06-14T13:44:30;5.17;;;4.67;;
46931;SDS011;32670;51.464;11.964;2023-06-14T13:46:55;4.60;;;4.30;;
46931;SDS011;32670;51.464;11.964;2023-06-14T13:49:22;4.37;;;4.07;;
46931;SDS011;32670;51.464;11.964;2023-06-14T13:51:48;4.90;;;4.50;;
46931;SDS011;32670;51.464;11.964;2023-06-14T13:54:13;4.97;;;4.57;;
46931;SDS011;32670;51.464;11.964;2023-06-14T13:56:40;4.80;;;4.40;;
46931;SDS011;32670;51.464;11.964;2023-06-14T13:59:06;4.57;;;4.17;;
46931;SDS011;32670;51.464;11.964;2023-06-14T14:01:31;4.43;;;4.13;;
46931;SDS011;32670;51.464;11.964;2023-06-14T14:03:57;4.70;;;4.30;;
46931;SDS011;32670;51.464;11.964;2023-06-14T14:06:23;5.20;;;4.80;;
46931;SDS011;32670;51.464;11.964;2023-06-14T14:08:49;4.60;;;4.27;;
46931;SDS011;32670;51.464;11.964;2023-06-14T14:11:14;4.93;;;4.53;;
46931;SDS011;32670;51.464;11.964;2023-06-14T14:13:41;4.67;;;4.27;;
46931;SDS011;32670;51.464;11.964;2023-06-14T14:16:07;4.60;;;4.27;;
46931;SDS011;32670;51.464;11.964;2023-06-14T14:18:32;5.20;;;4.80;;
46931;SDS011;32670;51.464;11.964;2023-06-14T14:20:58;5.83;;;5.17;;
46931;SDS011;32670;51.464;11.964;2023-06-14T14:23:25;5.77;;;5.20;;
46931;SDS011;32670;51.464;11.964;2023-06-14T14:25:51;5.40;;;5.00;;
46931;SDS011;32670;51.464;11.964;2023-06-14T14:28:16;5.50;;;5.00;;
46931;SDS011;32670;51.464;11.964;2023-06-14T14:30:44;4.93;;;4.53;;
46931;SDS011;32670;51.464;11.964;2023-06-14T14:33:10;5.00;;;4.57;;
46931;SDS011;32670;51.464;11.964;2023-06-14T14:35:40;5.30;;;4.90;;
46931;SDS011;32670;51.464;11.964;2023-06-14T14:38:06;5.27;;;4.77;;
46931;SDS011;32670;51.464;11.964;2023-06-14T14:40:32;5.90;;;5.40;;